Time;durP1;ratioP1;P1;durP2;ratioP2;P2;SDS_P1;SDS_P2;PMS_P1;PMS_P2;Temp;Humidity;BMP_temperature;BMP_pressure;BME280_temperature;BME280_humidity;BME280_pressure;Samples;Min_cycle;Max_cycle;Signal;HPM_P1;HPM_P2
2022/11/10 00:03:35;;;;;;;53.60;29.03;;;11.40;99.90;;;;;;9991647;29;20226;-96
2022/11/10 00:08:56;;;;;;;52.70;28.30;;;10.20;99.90;;;;;;9986493;29;20218;-96
2022/11/10 00:19:57;;;;;;;48.07;27.13;;;10.30;99.90;;;;;;10028948;29;20222;-96
2022/11/10 00:25:17;;;;;;;51.60;27.80;;;9.70;99.90;;;;;;10007242;29;20987;-96
2022/11/10 00:30:38;;;;;;;46.73;26.73;;;10.00;99.90;;;;;;9988860;29;20634;-95
2022/11/10 00:36:06;;;;;;;49.50;26.50;;;9.90;99.90;;;;;;9992128;29;20262;-96
2022/11/10 00:41:27;;;;;;;47.30;25.17;;;9.90;99.90;;;;;;10017736;29;20202;-95
2022/11/10 00:46:48;;;;;;;44.90;25.40;;;9.70;99.90;;;;;;9989950;29;20266;-96
2022/11/10 00:52:09;;;;;;;46.40;24.93;;;10.60;99.90;;;;;;10005159;29;20218;-96
2022/11/10 00:57:30;;;;;;;45.70;24.50;;;11.50;99.90;;;;;;10023056;29;20234;-96
2022/11/10 01:02:51;;;;;;;45.20;25.83;;;11.60;99.90;;;;;;10003088;29;20214;-96
2022/11/10 01:08:12;;;;;;;48.90;26.37;;;10.60;99.90;;;;;;9992397;29;20226;-96
2022/11/10 01:13:34;;;;;;;40.03;24.07;;;10.50;99.90;;;;;;9990193;29;20230;-95
2022/11/10 01:18:58;;;;;;;46.33;25.03;;;11.10;99.90;;;;;;9996785;29;20455;-95
2022/11/10 01:24:20;;;;;;;46.17;25.33;;;10.20;99.90;;;;;;9986473;29;20207;-96
2022/11/10 01:29:41;;;;;;;42.97;25.47;;;10.60;99.90;;;;;;10000846;29;20227;-95
2022/11/10 01:35:02;;;;;;;41.73;23.40;;;10.50;99.90;;;;;;9990950;29;20234;-95
2022/11/10 01:40:23;;;;;;;46.47;25.27;;;10.90;99.90;;;;;;10011747;29;20214;-96
2022/11/10 01:45:46;;;;;;;42.43;23.80;;;10.30;99.90;;;;;;9997987;29;20248;-96
2022/11/10 01:51:37;;;;;;;51.10;25.63;;;10.80;99.90;;;;;;10001993;29;20214;-96
2022/11/10 01:57:05;;;;;;;41.03;22.67;;;10.50;99.90;;;;;;10030031;29;20585;-96
2022/11/10 02:02:42;;;;;;;42.50;23.60;;;10.40;99.90;;;;;;10031356;29;20214;-96
2022/11/10 02:08:04;;;;;;;39.73;23.60;;;10.90;99.90;;;;;;9989966;29;20223;-95
2022/11/10 02:13:25;;;;;;;37.43;22.70;;;10.70;99.90;;;;;;10000124;29;20224;-96
2022/11/10 02:18:47;;;;;;;34.00;20.77;;;10.80;99.90;;;;;;10030326;29;20559;-96
2022/11/10 02:24:08;;;;;;;38.77;21.00;;;13.20;99.90;;;;;;10006441;29;20228;-96
2022/11/10 02:29:29;;;;;;;37.67;19.40;;;13.40;99.90;;;;;;9988122;29;20233;-96
2022/11/10 02:34:50;;;;;;;37.63;20.37;;;13.90;99.90;;;;;;10025071;29;20233;-95
2022/11/10 02:40:11;;;;;;;33.57;20.43;;;12.30;99.90;;;;;;10003003;29;20222;-96
2022/11/10 02:45:32;;;;;;;39.07;22.43;;;11.40;99.90;;;;;;10029821;29;20236;-96
2022/11/10 02:50:53;;;;;;;37.60;22.33;;;12.50;99.90;;;;;;9994486;29;20223;-96
2022/11/10 02:56:14;;;;;;;36.00;20.57;;;12.00;99.90;;;;;;9990522;29;20234;-96
2022/11/10 03:01:35;;;;;;;38.33;19.83;;;11.30;99.90;;;;;;10010918;29;20216;-96
2022/11/10 03:06:56;;;;;;;34.03;19.23;;;11.20;99.90;;;;;;10006531;29;20212;-96
2022/11/10 03:12:18;;;;;;;36.70;21.60;;;11.60;99.90;;;;;;9988582;29;20219;-96
2022/11/10 03:17:39;;;;;;;31.27;18.87;;;11.60;99.90;;;;;;10000121;29;20239;-96
2022/11/10 03:23:03;;;;;;;38.57;20.37;;;11.60;99.90;;;;;;10012514;29;20217;-96
2022/11/10 03:28:24;;;;;;;33.20;19.67;;;11.60;99.90;;;;;;9997317;29;20220;-96
2022/11/10 03:33:45;;;;;;;37.10;20.03;;;11.20;99.90;;;;;;9994080;29;20216;-96
2022/11/10 03:39:06;;;;;;;35.20;19.50;;;10.70;99.90;;;;;;9991952;29;20208;-96
2022/11/10 03:44:27;;;;;;;32.70;18.73;;;11.50;99.90;;;;;;9991596;29;20247;-95
2022/11/10 03:49:48;;;;;;;31.33;18.47;;;11.70;99.90;;;;;;9987773;29;20215;-96
2022/11/10 03:55:15;;;;;;;33.57;19.53;;;12.50;99.90;;;;;;9987965;29;20235;-96
2022/11/10 04:00:36;;;;;;;30.67;17.67;;;12.50;99.90;;;;;;10019607;29;20217;-96
2022/11/10 04:17:16;;;;;;;28.50;17.70;;;14.20;99.90;;;;;;9991913;29;20241;-95
2022/11/10 04:28:16;;;;;;;29.53;18.53;;;14.20;99.90;;;;;;10013034;29;20218;-96
2022/11/10 04:33:39;;;;;;;27.50;17.70;;;13.50;99.90;;;;;;10029215;29;20214;-96
2022/11/10 04:39:00;;;;;;;30.77;17.80;;;12.60;99.90;;;;;;10009085;29;20219;-96
2022/11/10 04:44:21;;;;;;;25.90;16.67;;;14.30;99.90;;;;;;10025661;29;20244;-96
2022/11/10 04:49:42;;;;;;;29.80;15.63;;;13.60;99.90;;;;;;10015883;29;20221;-95
2022/11/10 04:55:04;;;;;;;27.47;18.50;;;14.70;99.90;;;;;;10022801;29;20229;-96
2022/11/10 05:00:25;;;;;;;28.50;15.23;;;14.10;99.90;;;;;;10022587;29;20218;-96
2022/11/10 05:05:46;;;;;;;25.73;17.30;;;13.40;99.90;;;;;;9988085;29;20215;-96
2022/11/10 05:11:07;;;;;;;32.00;17.60;;;14.80;99.90;;;;;;10007756;29;20218;-96
2022/11/10 05:16:28;;;;;;;27.17;17.73;;;14.90;99.90;;;;;;9993397;29;20234;-96
2022/11/10 05:21:49;;;;;;;21.03;13.63;;;14.80;99.90;;;;;;9987917;29;20560;-96
2022/11/10 05:27:11;;;;;;;22.97;15.73;;;13.40;99.90;;;;;;9991148;29;20222;-96
2022/11/10 05:32:32;;;;;;;22.90;14.10;;;13.80;99.90;;;;;;10001836;29;20218;-96
2022/11/10 05:37:53;;;;;;;27.40;17.33;;;15.40;99.90;;;;;;9997681;29;20234;-96
2022/11/10 05:43:14;;;;;;;24.97;15.57;;;15.60;99.90;;;;;;10001815;29;20655;-96
2022/11/10 05:48:35;;;;;;;26.93;16.40;;;14.90;99.90;;;;;;9989977;29;20238;-95
2022/11/10 05:53:56;;;;;;;25.97;17.53;;;14.60;99.90;;;;;;10021994;29;20218;-96
2022/11/10 05:59:17;;;;;;;28.43;17.60;;;15.80;99.90;;;;;;10035029;29;20234;-96
2022/11/10 06:55:41;;;;;;;17.33;10.57;;;14.00;99.90;;;;;;10756316;24;20358;-94
2022/11/10 07:01:02;;;;;;;17.43;9.00;;;14.60;99.90;;;;;;10008427;29;20220;-95
2022/11/10 07:06:23;;;;;;;15.70;8.73;;;13.70;99.90;;;;;;10030936;29;20317;-94
2022/11/10 07:11:44;;;;;;;13.77;8.60;;;14.10;99.90;;;;;;10023272;29;20209;-95
2022/11/10 07:17:05;;;;;;;19.73;9.00;;;13.40;99.90;;;;;;10044125;29;20420;-94
2022/11/10 07:22:26;;;;;;;14.33;8.60;;;13.80;99.90;;;;;;10057589;29;20206;-94
2022/11/10 07:27:55;;;;;;;16.70;9.67;;;14.30;99.90;;;;;;10057443;29;20190;-93
2022/11/10 07:33:16;;;;;;;115.57;16.83;;;14.70;99.90;;;;;;10069424;29;20197;-94
2022/11/10 07:38:37;;;;;;;53.43;11.70;;;15.20;99.90;;;;;;10069194;29;20222;-95
2022/11/10 07:44:01;;;;;;;56.00;14.00;;;16.00;99.90;;;;;;10028366;29;20201;-94
2022/11/10 07:49:22;;;;;;;47.53;12.17;;;16.00;99.90;;;;;;10068298;29;20199;-93
2022/11/10 07:54:43;;;;;;;53.47;11.67;;;16.20;99.90;;;;;;10066581;29;20250;-93
2022/11/10 08:00:06;;;;;;;57.40;12.43;;;16.20;99.90;;;;;;10032032;29;20194;-93
2022/11/10 08:05:27;;;;;;;24.83;9.17;;;17.50;99.90;;;;;;10066420;29;20192;-94
2022/11/10 08:10:48;;;;;;;48.83;12.20;;;17.00;99.90;;;;;;10035391;29;20198;-94
2022/11/10 08:16:09;;;;;;;39.67;11.70;;;17.40;99.90;;;;;;10035906;29;20206;-93
2022/11/10 08:21:30;;;;;;;37.60;15.17;;;16.50;99.90;;;;;;10069706;29;20379;-94
2022/11/10 08:26:51;;;;;;;13.70;6.83;;;17.80;99.90;;;;;;10067520;29;20195;-93
2022/11/10 08:32:12;;;;;;;28.00;10.73;;;16.40;99.90;;;;;;10067093;29;20198;-93
2022/11/10 08:37:33;;;;;;;27.93;11.57;;;17.30;99.90;;;;;;10063448;29;20535;-93
2022/11/10 08:42:59;;;;;;;25.93;10.77;;;16.90;99.90;;;;;;10050211;29;20202;-93
2022/11/10 08:48:20;;;;;;;20.80;12.40;;;17.00;99.90;;;;;;10078180;29;20218;-94
2022/11/10 08:53:41;;;;;;;29.67;11.07;;;17.40;99.90;;;;;;10072803;29;20218;-93
2022/11/10 08:59:02;;;;;;;25.37;12.43;;;18.00;99.90;;;;;;10038613;29;20239;-94
2022/11/10 09:04:23;;;;;;;17.30;9.63;;;17.80;99.90;;;;;;10026323;29;20208;-94
2022/11/10 09:09:44;;;;;;;23.37;10.83;;;17.10;99.90;;;;;;9999510;29;20210;-94
2022/11/10 09:15:26;;;;;;;20.00;8.60;;;16.90;99.90;;;;;;10032325;29;20226;-93
2022/11/10 09:20:47;;;;;;;21.13;9.87;;;17.20;99.90;;;;;;10011262;29;20210;-93
2022/11/10 09:26:08;;;;;;;8.13;3.70;;;17.20;99.90;;;;;;10013197;29;20210;-94
2022/11/10 09:31:29;;;;;;;17.70;9.10;;;16.20;99.90;;;;;;10016564;29;20221;-94
2022/11/10 09:36:50;;;;;;;8.03;4.30;;;;;;;;;;10018551;29;20234;-95
2022/11/10 09:42:24;;;;;;;19.50;7.53;;;17.20;99.90;;;;;;10040559;29;20587;-94
2022/11/10 09:48:00;;;;;;;9.70;4.50;;;16.30;99.90;;;;;;10024720;29;20223;-96
2022/11/10 09:53:30;;;;;;;6.87;4.23;;;16.20;99.90;;;;;;10010006;29;20243;-95
2022/11/10 09:58:52;;;;;;;14.03;9.33;;;16.30;99.90;;;;;;10012177;29;20245;-94
2022/11/10 10:04:32;;;;;;;14.67;7.93;;;17.50;99.90;;;;;;10027346;29;20223;-94
2022/11/10 10:10:19;;;;;;;11.13;7.80;;;16.10;99.90;;;;;;10024129;29;20689;-91
2022/11/10 10:15:45;;;;;;;11.80;8.40;;;17.60;99.90;;;;;;9990141;29;20220;-92
2022/11/10 10:21:09;;;;;;;14.83;8.10;;;16.30;99.90;;;;;;10001210;29;20203;-94
2022/11/10 10:26:36;;;;;;;14.70;7.67;;;17.70;99.90;;;;;;10029727;29;20214;-92
2022/11/10 10:32:00;;;;;;;4.73;3.07;;;18.30;98.70;;;;;;10032106;29;20233;-95
2022/11/10 10:37:38;;;;;;;10.37;3.07;;;17.20;99.70;;;;;;10000504;29;20207;-96
2022/11/10 10:43:12;;;;;;;6.70;2.90;;;16.70;99.90;;;;;;9999949;29;20207;-95
2022/11/10 10:48:33;;;;;;;9.73;3.50;;;16.30;99.90;;;;;;10007613;29;20676;-93
2022/11/10 10:53:54;;;;;;;5.67;3.73;;;15.80;99.90;;;;;;10027233;29;20226;-95
2022/11/10 10:59:22;;;;;;;6.73;2.90;;;16.90;99.90;;;;;;10010376;29;20227;-96
2022/11/10 11:04:44;;;;;;;12.53;5.60;;;16.40;99.90;;;;;;10013659;29;20212;-93
2022/11/10 11:10:27;;;;;;;7.50;4.37;;;16.30;99.90;;;;;;10000670;29;20216;-93
2022/11/10 11:15:58;;;;;;;13.97;5.67;;;15.90;99.90;;;;;;10029941;29;20229;-94
2022/11/10 11:21:36;;;;;;;4.83;3.30;;;16.10;99.90;;;;;;9992511;29;20219;-94
2022/11/10 11:27:24;;;;;;;6.50;2.77;;;14.30;99.90;;;;;;10001527;29;20677;-93
2022/11/10 11:32:57;;;;;;;47.47;6.93;;;14.80;99.90;;;;;;10024929;29;20588;-94
2022/11/10 11:49:40;;;;;;;12.10;3.03;;;15.10;99.90;;;;;;8845097;24;10001385;-95
2022/11/10 11:55:43;;;;;;;11.47;3.50;;;16.40;99.90;;;;;;10045227;29;20195;-94
2022/11/10 12:01:39;;;;;;;17.87;4.80;;;17.60;99.90;;;;;;10044614;29;20224;-95
2022/11/10 12:07:29;;;;;;;4.97;1.97;;;19.00;97.00;;;;;;10046008;29;20218;-95
2022/11/10 12:13:27;;;;;;;9.47;4.47;;;18.50;95.10;;;;;;10044492;29;20218;-94
2022/11/10 12:19:22;;;;;;;14.53;4.60;;;18.40;95.90;;;;;;9945770;30;20720;-94
2022/11/10 12:25:20;;;;;;;16.20;5.73;;;18.60;94.10;;;;;;9923581;30;20209;-95
2022/11/10 12:30:46;;;;;;;6.87;3.57;;;18.70;96.90;;;;;;9942194;29;20208;-96
2022/11/10 12:36:30;;;;;;;10.07;5.63;;;18.00;98.20;;;;;;9923938;30;20269;-95
2022/11/10 12:42:04;;;;;;;5.77;3.13;;;17.30;99.60;;;;;;9932445;30;20197;-95
2022/11/10 12:47:46;;;;;;;10.37;4.77;;;17.00;99.90;;;;;;9941554;30;20218;-95
2022/11/10 12:53:32;;;;;;;12.93;4.90;;;18.20;97.50;;;;;;9995428;29;20226;-94
2022/11/10 12:59:28;;;;;;;4.50;2.10;;;16.60;99.90;;;;;;10038887;29;20238;-93
2022/11/10 13:05:22;;;;;;;7.87;5.03;;;17.20;94.70;;;;;;10035964;29;20219;-94
2022/11/10 13:11:01;;;;;;;6.77;4.83;;;18.70;94.00;;;;;;10023378;29;20236;-94
2022/11/10 13:16:43;;;;;;;7.07;2.70;;;16.80;99.90;;;;;;10029177;29;20237;-94
2022/11/10 13:22:18;;;;;;;6.47;3.47;;;15.90;98.30;;;;;;10043032;29;20214;-93
2022/11/10 13:27:48;;;;;;;9.70;2.10;;;15.70;99.80;;;;;;10038294;29;20210;-92
2022/11/10 13:33:34;;;;;;;6.40;4.30;;;15.80;99.90;;;;;;10045908;29;20226;-94
2022/11/10 13:38:56;;;;;;;8.20;3.53;;;15.70;99.90;;;;;;9994959;29;20238;-94
2022/11/10 13:44:25;;;;;;;7.97;3.83;;;14.90;99.90;;;;;;10018037;29;20210;-93
2022/11/10 13:50:13;;;;;;;3.47;2.43;;;15.60;99.90;;;;;;10017014;29;20250;-94
2022/11/10 13:55:59;;;;;;;11.77;3.33;;;15.60;99.90;;;;;;10014351;29;20222;-94
2022/11/10 14:01:25;;;;;;;5.83;3.30;;;15.50;99.90;;;;;;10017230;29;20663;-94
2022/11/10 14:06:53;;;;;;;4.00;2.53;;;15.20;99.90;;;;;;10026772;29;20223;-94
2022/11/10 14:12:27;;;;;;;4.90;4.10;;;15.10;99.90;;;;;;10028638;29;20210;-94
2022/11/10 14:17:52;;;;;;;8.67;2.20;;;14.80;99.90;;;;;;10003700;29;20235;-94
2022/11/10 14:23:48;;;;;;;5.57;3.57;;;15.80;99.90;;;;;;10022952;29;20222;-95
2022/11/10 14:29:27;;;;;;;5.93;1.87;;;15.70;99.90;;;;;;9842921;30;20218;-95
2022/11/10 14:34:51;;;;;;;5.23;2.90;;;16.20;99.90;;;;;;9827904;30;20225;-95
2022/11/10 14:40:17;;;;;;;3.87;2.93;;;15.80;99.90;;;;;;9840818;30;20791;-96
2022/11/10 14:45:49;;;;;;;9.20;4.70;;;15.50;99.90;;;;;;9840657;30;20221;-95
2022/11/10 14:51:13;;;;;;;6.00;4.00;;;15.30;99.90;;;;;;9844471;30;20264;-95
2022/11/10 14:56:41;;;;;;;2.90;2.50;;;15.60;99.90;;;;;;9839564;30;20791;-96
2022/11/10 15:02:15;;;;;;;7.43;2.30;;;14.60;99.90;;;;;;9861524;29;20215;-95
2022/11/10 15:07:36;;;;;;;6.77;2.83;;;14.10;99.90;;;;;;10010220;29;20230;-95
2022/11/10 15:13:06;;;;;;;10.57;4.50;;;13.60;99.90;;;;;;10022494;29;20218;-95
2022/11/10 15:18:28;;;;;;;9.67;3.63;;;13.20;99.90;;;;;;10033113;29;20598;-95
2022/11/10 15:23:55;;;;;;;7.77;3.33;;;13.70;99.90;;;;;;10026246;29;20214;-95
2022/11/10 15:29:21;;;;;;;10.27;2.60;;;12.80;99.90;;;;;;10029992;29;20214;-96
2022/11/10 15:34:44;;;;;;;4.53;3.07;;;11.80;99.90;;;;;;10026241;29;20218;-95
2022/11/10 15:40:29;;;;;;;8.27;3.67;;;11.60;99.90;;;;;;10010419;29;20234;-95
2022/11/10 15:45:58;;;;;;;9.77;3.87;;;11.20;99.90;;;;;;10032327;29;20210;-96
2022/11/10 15:51:19;;;;;;;8.60;3.60;;;11.30;99.90;;;;;;9705073;29;10000549;-95
2022/11/10 15:56:46;;;;;;;8.43;4.73;;;11.30;99.90;;;;;;9701144;29;9999847;-96
2022/11/10 16:02:26;;;;;;;7.97;4.50;;;11.10;99.90;;;;;;9687289;29;10001614;-96
2022/11/10 16:07:47;;;;;;;12.63;5.23;;;11.20;99.90;;;;;;10011000;29;20256;-96
2022/11/10 16:13:11;;;;;;;16.23;7.93;;;11.00;99.90;;;;;;10024801;29;20225;-96
2022/11/10 16:18:32;;;;;;;11.60;6.20;;;10.80;99.90;;;;;;10027846;29;20239;-96
2022/11/10 16:23:53;;;;;;;11.30;7.13;;;10.50;99.90;;;;;;10015919;29;20210;-96
2022/11/10 16:29:17;;;;;;;21.73;10.63;;;10.20;99.90;;;;;;10014853;29;20216;-96
2022/11/10 16:34:39;;;;;;;26.73;13.37;;;10.10;99.90;;;;;;10015594;29;20222;-96
2022/11/10 16:40:00;;;;;;;33.87;17.00;;;10.20;99.90;;;;;;10003460;29;20230;-96
2022/11/10 16:45:28;;;;;;;29.37;14.60;;;10.10;99.90;;;;;;10012152;29;20206;-95
2022/11/10 16:50:52;;;;;;;27.83;12.83;;;10.10;99.90;;;;;;10018318;29;20243;-95
2022/11/10 16:56:15;;;;;;;22.27;11.77;;;10.10;99.90;;;;;;10028988;29;20224;-96
2022/11/10 17:01:40;;;;;;;15.87;9.43;;;10.20;99.90;;;;;;10026699;29;20226;-95
2022/11/10 17:07:01;;;;;;;17.93;10.47;;;10.80;99.90;;;;;;10029999;29;20232;-96
2022/11/10 17:12:23;;;;;;;13.07;8.53;;;10.90;99.90;;;;;;9982194;29;20220;-96
2022/11/10 17:17:47;;;;;;;26.17;12.57;;;10.90;99.90;;;;;;10020367;29;20247;-96
2022/11/10 17:23:13;;;;;;;21.10;10.47;;;13.90;99.90;;;;;;10010333;29;20777;-91
2022/11/10 17:28:34;;;;;;;28.07;14.83;;;13.00;99.90;;;;;;10019643;29;20273;-94
2022/11/10 17:33:55;;;;;;;27.93;14.23;;;11.80;99.90;;;;;;10007752;29;20257;-93
2022/11/10 17:39:17;;;;;;;28.50;14.60;;;10.90;99.90;;;;;;9671914;29;10000082;-95
2022/11/10 17:44:38;;;;;;;30.37;15.23;;;10.90;99.90;;;;;;10007783;29;20319;-94
2022/11/10 17:49:59;;;;;;;28.20;16.57;;;10.50;99.90;;;;;;10016018;24;20267;-83
2022/11/10 17:55:26;;;;;;;29.17;17.33;;;10.30;99.90;;;;;;10065546;29;20245;-80
2022/11/10 18:00:54;;;;;;;16.60;11.53;;;11.10;99.90;;;;;;10044912;29;20265;-80
2022/11/10 18:06:17;;;;;;;17.47;11.10;;;12.00;99.90;;;;;;10040765;29;20248;-80
2022/11/10 18:11:38;;;;;;;21.27;9.80;;;12.70;99.90;;;;;;10055454;29;20238;-80
2022/11/10 18:17:00;;;;;;;21.47;10.63;;;12.20;99.90;;;;;;10063308;29;20260;-80
2022/11/10 18:22:21;;;;;;;22.17;9.03;;;12.90;99.90;;;;;;10045466;29;20245;-83
2022/11/10 18:27:42;;;;;;;25.53;10.43;;;13.40;99.90;;;;;;10068734;29;20249;-81
2022/11/10 18:33:04;;;;;;;17.50;9.57;;;12.10;99.90;;;;;;10020370;29;20245;-81
2022/11/10 18:38:26;;;;;;;27.97;10.97;;;12.50;99.90;;;;;;10056195;29;20257;-79
2022/11/10 18:43:47;;;;;;;13.90;7.37;;;14.10;99.90;;;;;;10056343;29;20261;-79
2022/11/10 18:49:09;;;;;;;13.67;7.17;;;15.80;99.90;;;;;;10053095;29;20249;-81
2022/11/10 18:54:30;;;;;;;17.00;8.53;;;15.30;99.90;;;;;;10040902;29;20269;-80
2022/11/10 18:59:51;;;;;;;15.67;8.83;;;14.50;99.90;;;;;;9695776;29;10000519;-80
2022/11/10 19:05:12;;;;;;;20.33;9.80;;;12.80;99.90;;;;;;10034779;29;20294;-79
2022/11/10 19:10:34;;;;;;;16.10;9.37;;;12.70;99.90;;;;;;10049441;29;20237;-80
2022/11/10 19:15:59;;;;;;;15.13;9.00;;;12.50;99.90;;;;;;10061885;29;20245;-80
2022/11/10 19:21:23;;;;;;;20.73;9.23;;;13.60;99.90;;;;;;10036660;29;20640;-80
2022/11/10 19:26:51;;;;;;;25.67;13.00;;;11.50;99.90;;;;;;9834436;29;10001169;-80
2022/11/10 19:32:12;;;;;;;28.90;14.03;;;10.40;99.90;;;;;;10048859;29;20605;-80
2022/11/10 19:37:35;;;;;;;30.27;14.30;;;10.10;99.90;;;;;;10051302;29;20329;-80
2022/11/10 19:42:57;;;;;;;25.70;12.57;;;9.70;99.90;;;;;;10052107;29;20245;-80
2022/11/10 19:48:18;;;;;;;26.00;12.50;;;10.40;99.90;;;;;;10056466;29;20694;-80
2022/11/10 19:53:41;;;;;;;27.40;13.53;;;10.30;99.90;;;;;;10052007;29;20795;-80
2022/11/10 19:59:02;;;;;;;28.03;14.17;;;10.00;99.90;;;;;;10061003;29;20269;-80
2022/11/10 20:05:11;;;;;;;28.00;12.80;;;9.90;99.90;;;;;;10517229;27;20576;-82
2022/11/10 20:10:14;;;;;;;25.83;14.73;;;9.50;99.90;;;;;;10483805;28;20226;-82
2022/11/10 20:15:40;;;;;;;27.10;13.87;;;9.40;99.90;;;;;;10481165;28;20651;-81
2022/11/10 20:21:07;;;;;;;26.50;13.23;;;9.30;99.90;;;;;;10481437;28;20702;-81
2022/11/10 20:26:28;;;;;;;28.20;14.10;;;9.10;99.90;;;;;;10484639;28;20702;-82
2022/11/10 20:31:49;;;;;;;34.77;14.33;;;8.90;99.90;;;;;;10440918;28;20249;-82
2022/11/10 20:37:10;;;;;;;22.67;14.20;;;8.90;99.90;;;;;;10448273;28;20246;-82
2022/11/10 20:42:32;;;;;;;25.47;14.30;;;;;;;;;;10534019;28;20252;-82
2022/11/10 20:47:53;;;;;;;26.63;13.63;;;8.70;99.90;;;;;;10518194;28;20237;-82
2022/11/10 20:53:14;;;;;;;25.80;14.10;;;8.60;99.90;;;;;;10481627;28;20234;-83
2022/11/10 20:58:35;;;;;;;25.10;12.33;;;8.60;99.90;;;;;;10499799;28;20237;-82
2022/11/10 21:03:56;;;;;;;26.50;14.60;;;8.70;99.90;;;;;;10491258;28;20269;-83
2022/11/10 21:09:18;;;;;;;24.23;11.90;;;8.90;99.90;;;;;;10490734;28;20813;-82
2022/11/10 21:14:39;;;;;;;15.20;10.23;;;9.20;99.90;;;;;;10461246;28;20238;-82
2022/11/10 21:20:00;;;;;;;13.03;9.23;;;10.10;99.90;;;;;;10429221;28;20709;-82
2022/11/10 21:25:21;;;;;;;13.63;8.80;;;10.70;99.90;;;;;;10459477;28;20326;-82
2022/11/10 21:30:42;;;;;;;18.27;8.27;;;13.60;99.90;;;;;;10463799;28;20237;-83
2022/11/10 21:36:05;;;;;;;14.40;8.70;;;12.90;99.90;;;;;;10458157;28;20267;-82
2022/11/10 21:41:27;;;;;;;13.97;8.53;;;13.60;99.90;;;;;;10459208;28;20261;-82
2022/11/10 21:46:48;;;;;;;15.23;8.30;;;13.40;99.90;;;;;;10449782;28;20230;-81
2022/11/10 21:52:09;;;;;;;16.60;8.50;;;13.80;99.90;;;;;;10453427;28;20242;-82
2022/11/10 21:57:30;;;;;;;14.27;8.67;;;12.90;99.90;;;;;;10450322;28;20238;-82
2022/11/10 22:02:57;;;;;;;16.03;8.47;;;11.90;99.90;;;;;;10449926;28;20261;-82
2022/11/10 22:08:18;;;;;;;15.90;8.90;;;11.20;99.90;;;;;;10453106;28;20252;-82
2022/11/10 22:19:21;;;;;;;12.03;8.40;;;13.80;99.90;;;;;;10468993;28;20665;-82
2022/11/10 22:24:42;;;;;;;10.90;8.60;;;13.70;99.90;;;;;;10481311;28;20254;-81
2022/11/10 22:30:03;;;;;;;16.40;9.33;;;14.60;99.90;;;;;;10460296;28;20736;-82
2022/11/10 22:35:43;;;;;;;13.00;8.57;;;14.80;99.90;;;;;;10454452;28;20234;-81
2022/11/10 22:46:50;;;;;;;15.13;8.60;;;12.90;99.90;;;;;;10456071;28;20222;-81
2022/11/10 22:52:11;;;;;;;15.63;9.50;;;14.90;99.90;;;;;;10451529;28;20711;-82
2022/11/10 22:57:32;;;;;;;19.97;9.03;;;14.20;99.90;;;;;;10451134;28;20321;-81
2022/11/10 23:02:53;;;;;;;14.23;8.47;;;12.90;99.90;;;;;;10437382;28;20269;-82
2022/11/10 23:08:14;;;;;;;11.17;8.10;;;13.80;99.90;;;;;;10443448;28;20230;-82
2022/11/10 23:13:37;;;;;;;11.20;7.87;;;14.20;99.90;;;;;;10458658;28;20241;-83
2022/11/10 23:18:58;;;;;;;12.83;7.10;;;14.50;99.90;;;;;;10474179;28;20206;-83
2022/11/10 23:24:21;;;;;;;16.53;7.03;;;14.30;99.90;;;;;;10437207;28;20250;-83
2022/11/10 23:29:42;;;;;;;14.77;7.17;;;13.80;99.90;;;;;;10451123;28;20234;-83
2022/11/10 23:35:04;;;;;;;17.67;8.50;;;13.50;99.90;;;;;;10433584;28;20576;-81
2022/11/10 23:40:25;;;;;;;13.00;8.30;;;12.90;99.90;;;;;;10454520;28;20652;-80
2022/11/10 23:45:46;;;;;;;12.27;6.70;;;13.80;99.90;;;;;;10495660;28;20237;-80
2022/11/10 23:51:26;;;;;;;16.00;7.50;;;12.30;99.90;;;;;;10487678;28;20237;-81
2022/11/10 23:56:47;;;;;;;20.80;9.10;;;12.70;99.90;;;;;;10454692;28;20277;-81
